KHNB/HNB METAR and TAF weather

Enter ICAO airport designator
Station Type Date Time Source
KHNB METAR 2020/07/04 00:56 UTC NOAA

KHNB 040056Z AUTO 04003KT 10SM CLR 27/20 A2997 RMK AO2 SLP142 T02720200


Station Type Date Time Source
KHNB Decoded METAR 2020/07/04 00:56 UTC NOAA

Huntingburg, IN, United States (KHNB) 38-15N 086-57W
Jul 03, 2020 - 08:56 PM EDT / 2020.07.04 0056 UTC
Wind: from the NE (040 degrees) at 3 MPH (3 KT):0
Visibility: 10 mile(s):0
Sky conditions: clear
Temperature: 81.0 F (27.2 C)
Dew Point: 68.0 F (20.0 C)
Relative Humidity: 64%
Pressure (altimeter): 29.97 in. Hg (1014 hPa)
ob: KHNB 040056Z AUTO 04003KT 10SM CLR 27/20 A2997 RMK AO2 SLP142 T02720200
cycle: 1

Station Type Date Time Source
KHNB TAF 2020/07/03 18:21 UTC NOAA

TAF KHNB 031720Z 0318/0418 VRB03KT P6SM SCT060 BKN250
FM040000 VRB03KT P6SM SKC
FM041500 06005KT P6SM SCT050

Example: see airport list